createdAt,value
2023-05-05T00:01:28.694Z,101436.22
2023-05-05T00:03:56.219Z,101441.75
2023-05-05T00:06:23.381Z,101427.63
2023-05-05T00:08:54.643Z,101415.84
2023-05-05T00:11:21.735Z,101449.72
2023-05-05T00:13:48.975Z,101451.44
2023-05-05T00:16:21.585Z,101454.56
2023-05-05T00:18:52.927Z,101448.94
2023-05-05T00:21:20.436Z,101435.03
2023-05-05T00:23:50.278Z,101460.34
2023-05-05T00:26:17.417Z,101457.72
2023-05-05T00:28:44.712Z,101451.34
2023-05-05T00:31:12.013Z,101467.75
2023-05-05T00:33:39.024Z,101461.19
2023-05-05T00:36:06.586Z,101451.03
2023-05-05T00:38:34.706Z,101453.78
2023-05-05T00:41:01.865Z,101458.81
2023-05-05T00:43:30.038Z,101428.09
2023-05-05T00:46:24.004Z,101396.38
2023-05-05T00:48:52.644Z,101395.94
2023-05-05T00:51:21.434Z,101452.59
2023-05-05T00:53:49.400Z,101457.13
2023-05-05T00:56:20.200Z,101443.06
2023-05-05T00:58:48.285Z,101458.06
2023-05-05T01:01:19.038Z,101454.81
2023-05-05T01:03:51.455Z,101476.88
2023-05-05T01:06:56.908Z,101464.84
2023-05-05T01:09:25.936Z,101471.56
2023-05-05T01:12:08.371Z,101476.41
2023-05-05T01:14:47.836Z,101477.28
2023-05-05T01:17:20.273Z,101488.81
2023-05-05T01:19:55.873Z,101494.84
2023-05-05T01:22:38.689Z,101494.53
2023-05-05T01:25:23.981Z,101497.97
2023-05-05T01:28:05.799Z,101496.44
2023-05-05T01:31:04.662Z,101479.72
2023-05-05T01:33:41.698Z,101470.59
2023-05-05T01:36:13.713Z,101454.22
2023-05-05T01:38:46.655Z,101472.66
2023-05-05T01:41:18.577Z,101433.28
2023-05-05T01:43:57.529Z,101458.88
2023-05-05T01:46:27.773Z,101474.56
2023-05-05T01:48:57.105Z,101467.50
2023-05-05T01:51:29.231Z,101462.84
2023-05-05T01:54:01.841Z,101470.44
2023-05-05T01:56:32.236Z,101479.41
2023-05-05T01:59:08.773Z,101411.66
2023-05-05T02:01:44.983Z,101471.84
2023-05-05T02:04:16.130Z,101453.66
2023-05-05T02:06:44.975Z,101458.28
2023-05-05T02:09:17.336Z,101463.94
2023-05-05T02:11:47.157Z,101469.44
2023-05-05T02:14:17.731Z,101461.91
2023-05-05T02:16:46.606Z,101475.84
2023-05-05T02:19:15.144Z,101462.59
2023-05-05T02:21:42.597Z,101464.31
2023-05-05T02:24:09.834Z,101470.84
2023-05-05T02:26:44.482Z,101472.72
2023-05-05T02:29:19.302Z,101475.28
2023-05-05T02:31:51.215Z,101466.53
2023-05-05T02:34:32.475Z,101488.88
2023-05-05T02:37:06.198Z,101494.38
2023-05-05T02:39:59.148Z,101492.25
2023-05-05T02:42:36.069Z,101490.31
2023-05-05T02:45:13.520Z,101498.22
2023-05-05T02:47:40.753Z,101502.69
2023-05-05T02:50:09.505Z,101504.69
2023-05-05T02:52:39.480Z,101508.47
2023-05-05T02:55:12.906Z,101520.13
2023-05-05T02:58:05.250Z,101511.84
2023-05-05T03:00:34.489Z,101512.19
2023-05-05T03:03:07.890Z,101510.78
2023-05-05T03:05:46.053Z,101509.41
2023-05-05T03:08:40.588Z,101509.19
2023-05-05T03:11:14.401Z,101505.03
2023-05-05T03:13:44.252Z,101478.50
2023-05-05T03:16:16.198Z,101497.59
2023-05-05T03:18:45.461Z,101499.28
2023-05-05T03:21:13.672Z,101511.28
2023-05-05T03:23:43.823Z,101502.84
2023-05-05T03:26:10.808Z,101503.81
2023-05-05T03:28:40.858Z,101511.41
2023-05-05T03:31:13.730Z,101501.88
2023-05-05T03:33:43.360Z,101514.56
2023-05-05T03:36:18.607Z,101509.00
2023-05-05T03:38:48.577Z,101500.38
2023-05-05T03:41:18.346Z,101361.28
2023-05-05T03:43:47.663Z,101492.88
2023-05-05T03:46:19.519Z,101517.53
2023-05-05T03:48:46.746Z,101519.75
2023-05-05T03:51:13.860Z,101528.16
2023-05-05T03:53:46.835Z,101530.34
2023-05-05T03:56:18.245Z,101505.28
2023-05-05T03:58:46.340Z,101537.31
2023-05-05T04:01:13.240Z,101512.63
2023-05-05T04:03:40.347Z,101528.78
2023-05-05T04:06:07.698Z,101522.78
2023-05-05T04:08:36.870Z,101532.00
2023-05-05T04:11:06.760Z,101538.00
2023-05-05T04:13:39.438Z,101540.09
2023-05-05T04:16:09.951Z,101541.44
2023-05-05T04:18:39.593Z,101522.84
2023-05-05T04:21:12.717Z,101547.63
2023-05-05T04:23:39.716Z,101563.31
2023-05-05T04:26:06.981Z,101552.78
2023-05-05T04:28:35.654Z,101552.88
2023-05-05T04:31:05.403Z,101558.44
2023-05-05T04:33:32.465Z,101561.72
2023-05-05T04:36:00.590Z,101460.47
2023-05-05T04:38:28.036Z,101509.97
2023-05-05T04:40:55.014Z,101554.38
2023-05-05T04:43:25.124Z,101580.38
2023-05-05T04:45:56.133Z,101577.34
2023-05-05T04:48:23.768Z,101572.97
2023-05-05T04:50:52.057Z,101568.84
2023-05-05T04:53:24.526Z,101572.44
2023-05-05T04:55:54.164Z,101548.41
2023-05-05T04:58:21.235Z,101575.19
2023-05-05T05:00:48.748Z,101551.03
2023-05-05T05:03:17.229Z,101561.56
2023-05-05T05:05:44.486Z,101559.44
2023-05-05T05:08:11.764Z,101546.25
2023-05-05T05:10:42.699Z,101510.25
2023-05-05T05:13:20.664Z,101546.09
2023-05-05T05:15:49.995Z,101557.19
2023-05-05T05:18:24.736Z,101533.88
2023-05-05T05:20:59.460Z,101523.19
2023-05-05T05:23:28.684Z,101504.75
2023-05-05T05:25:57.988Z,101544.06
2023-05-05T05:28:28.259Z,101518.19
2023-05-05T05:30:55.787Z,101550.22
2023-05-05T05:33:22.698Z,101541.56
2023-05-05T05:35:49.685Z,101525.19
2023-05-05T05:38:18.063Z,101547.53
2023-05-05T05:40:45.096Z,101540.91
2023-05-05T05:43:11.950Z,101544.94
2023-05-05T05:45:53.497Z,101537.44
2023-05-05T05:48:21.548Z,101558.75
2023-05-05T05:50:51.823Z,101565.03
2023-05-05T05:53:21.921Z,101555.69
2023-05-05T05:55:51.393Z,101565.59
2023-05-05T05:58:23.271Z,101570.53
2023-05-05T06:00:51.366Z,101570.06
2023-05-05T06:03:18.670Z,101583.38
2023-05-05T06:05:46.922Z,101568.94
2023-05-05T06:08:16.695Z,101564.66
2023-05-05T06:10:48.495Z,101588.91
2023-05-05T06:13:18.022Z,101588.97
2023-05-05T06:15:45.090Z,101564.97
2023-05-05T06:18:12.741Z,101594.38
2023-05-05T06:20:43.699Z,101581.78
2023-05-05T06:23:11.449Z,101597.84
2023-05-05T06:25:42.688Z,101609.66
2023-05-05T06:28:14.636Z,101609.78
2023-05-05T06:30:41.854Z,101602.97
2023-05-05T06:33:13.862Z,101602.38
2023-05-05T06:35:41.140Z,101611.78
2023-05-05T06:38:10.331Z,101608.50
2023-05-05T06:40:46.134Z,101610.72
2023-05-05T06:43:17.780Z,101618.00
2023-05-05T06:45:50.705Z,101628.44
2023-05-05T06:48:27.446Z,101620.81
2023-05-05T06:50:56.977Z,101619.88
2023-05-05T06:53:28.620Z,101612.34
2023-05-05T06:55:56.113Z,101627.13
2023-05-05T06:58:26.174Z,101559.63
2023-05-05T07:00:55.228Z,101619.72
2023-05-05T07:03:25.739Z,101611.84
2023-05-05T07:05:55.529Z,101632.63
2023-05-05T07:08:22.490Z,101621.91
2023-05-05T07:10:50.062Z,101626.44
2023-05-05T07:13:20.465Z,101623.59
2023-05-05T07:15:52.331Z,101620.03
2023-05-05T07:18:21.512Z,101629.34
2023-05-05T07:20:49.391Z,101623.53
2023-05-05T07:23:16.431Z,101631.59
2023-05-05T07:25:45.804Z,101622.22
2023-05-05T07:28:12.770Z,101632.03
2023-05-05T07:30:39.683Z,101631.63
2023-05-05T07:33:11.572Z,101611.25
2023-05-05T07:35:40.551Z,101594.78
2023-05-05T07:38:08.684Z,101627.59
2023-05-05T07:40:39.029Z,101632.06
2023-05-05T07:43:08.759Z,101633.91
2023-05-05T07:45:37.621Z,101624.06
2023-05-05T07:48:04.496Z,101635.78
2023-05-05T07:50:31.455Z,101633.44
2023-05-05T07:53:10.519Z,101636.00
2023-05-05T07:55:44.265Z,101635.72
2023-05-05T07:58:11.998Z,101628.53
2023-05-05T08:00:44.130Z,101627.88
2023-05-05T08:03:12.123Z,101631.38
2023-05-05T08:05:39.713Z,101624.44
2023-05-05T08:08:07.285Z,101635.25
2023-05-05T08:10:34.234Z,101577.16
2023-05-05T08:13:01.553Z,101621.44
2023-05-05T08:15:28.264Z,101619.66
2023-05-05T08:17:56.861Z,101613.94
2023-05-05T08:20:28.827Z,101640.22
2023-05-05T08:22:55.652Z,101640.56
2023-05-05T08:25:22.345Z,101636.00
2023-05-05T08:27:51.559Z,101646.50
2023-05-05T08:30:20.884Z,101655.91
2023-05-05T08:32:47.651Z,101654.38
2023-05-05T08:35:14.349Z,101646.97
2023-05-05T08:37:41.174Z,101657.81
2023-05-05T08:40:11.934Z,101660.72
2023-05-05T08:42:39.987Z,101665.41
2023-05-05T08:45:11.083Z,101658.94
2023-05-05T08:47:39.033Z,101657.13
2023-05-05T08:50:13.683Z,101657.34
2023-05-05T08:52:44.546Z,101652.72
2023-05-05T08:55:21.589Z,101646.84
2023-05-05T08:57:53.332Z,101656.50
2023-05-05T09:00:20.916Z,101661.66
2023-05-05T09:02:48.102Z,101652.75
2023-05-05T09:05:15.464Z,101654.53
2023-05-05T09:07:43.806Z,101653.53
2023-05-05T09:10:11.815Z,101648.44
2023-05-05T09:12:44.355Z,101607.00
2023-05-05T09:15:17.245Z,101649.50
2023-05-05T09:17:45.575Z,101653.56
2023-05-05T09:20:13.946Z,101620.28
2023-05-05T09:22:43.238Z,101663.03
2023-05-05T09:25:12.992Z,101657.16
2023-05-05T09:27:45.841Z,101658.44
2023-05-05T09:30:16.842Z,101654.44
2023-05-05T09:32:49.700Z,101656.19
2023-05-05T09:35:17.460Z,101645.56
2023-05-05T09:37:44.880Z,101664.59
2023-05-05T09:40:13.816Z,101666.56
2023-05-05T09:42:44.400Z,101661.06
2023-05-05T09:45:20.357Z,101659.69
2023-05-05T09:47:48.226Z,101661.41
2023-05-05T09:50:18.614Z,101637.56
2023-05-05T09:53:15.059Z,101653.19
2023-05-05T09:55:42.059Z,101645.38
2023-05-05T09:58:23.528Z,101640.69
2023-05-05T10:00:53.395Z,101647.56
2023-05-05T10:03:20.060Z,101651.47
2023-05-05T10:05:47.919Z,101635.19
2023-05-05T10:08:14.792Z,101641.81
2023-05-05T10:10:52.547Z,101602.94
2023-05-05T10:13:23.324Z,101629.06
2023-05-05T10:15:53.895Z,101636.41
2023-05-05T10:18:25.060Z,101637.28
2023-05-05T10:21:02.606Z,101631.78
2023-05-05T10:23:39.373Z,101638.69
2023-05-05T10:26:07.728Z,101643.91
2023-05-05T10:29:05.856Z,101639.06
2023-05-05T10:31:54.417Z,101650.66
2023-05-05T10:34:29.713Z,101656.91
2023-05-05T10:37:00.241Z,101659.22
2023-05-05T10:39:28.121Z,101678.69
2023-05-05T10:41:59.989Z,101692.50
2023-05-05T10:44:33.547Z,101700.78
2023-05-05T10:47:01.954Z,101704.94
2023-05-05T10:49:49.263Z,101707.25
2023-05-05T10:52:18.868Z,101728.63
2023-05-05T10:55:01.300Z,101729.41
2023-05-05T10:57:32.339Z,101736.97
2023-05-05T10:59:59.050Z,101746.22
2023-05-05T11:02:30.100Z,101725.63
2023-05-05T11:05:09.771Z,101739.00
2023-05-05T11:07:37.800Z,101733.66
2023-05-05T11:10:11.410Z,101728.63
2023-05-05T11:13:00.293Z,101729.94
2023-05-05T11:15:29.990Z,101731.94
2023-05-05T11:18:07.428Z,101707.84
2023-05-05T11:20:44.506Z,101720.94
2023-05-05T11:23:11.057Z,101725.75
2023-05-05T11:25:38.151Z,101725.56
2023-05-05T11:28:14.941Z,101712.13
2023-05-05T11:30:57.487Z,101705.78
2023-05-05T11:33:31.681Z,101711.13
2023-05-05T11:36:06.802Z,101706.66
2023-05-05T11:39:05.527Z,101717.88
2023-05-05T11:41:32.267Z,101716.22
2023-05-05T11:44:20.795Z,101728.31
2023-05-05T11:46:55.704Z,101729.72
2023-05-05T11:49:29.663Z,101715.28
2023-05-05T11:52:04.358Z,101711.63
2023-05-05T11:54:31.712Z,101716.13
2023-05-05T11:57:01.933Z,101704.06
2023-05-05T11:59:28.551Z,101700.09
2023-05-05T12:01:55.290Z,101700.59
2023-05-05T12:04:24.634Z,101686.63
2023-05-05T12:06:51.781Z,101655.38
2023-05-05T12:09:20.319Z,101694.38
2023-05-05T12:11:57.090Z,101704.97
2023-05-05T12:14:25.906Z,101707.34
2023-05-05T12:17:01.910Z,101702.28
2023-05-05T12:19:33.412Z,101695.97
2023-05-05T12:22:01.413Z,101687.03
2023-05-05T12:24:28.545Z,101694.53
2023-05-05T12:26:56.120Z,101706.94
2023-05-05T12:29:28.893Z,101709.88
2023-05-05T12:32:00.803Z,101711.09
2023-05-05T12:34:27.724Z,101704.59
2023-05-05T12:36:54.870Z,101700.75
2023-05-05T12:39:21.782Z,101695.94
2023-05-05T12:41:48.583Z,101695.00
2023-05-05T12:44:15.157Z,101688.50
2023-05-05T12:46:46.099Z,101698.84
2023-05-05T12:49:15.552Z,101703.00
2023-05-05T12:51:56.562Z,101695.06
2023-05-05T12:54:29.627Z,101685.59
2023-05-05T12:56:58.828Z,101687.16
2023-05-05T12:59:25.472Z,101705.63
2023-05-05T13:01:52.815Z,101713.19
2023-05-05T13:04:25.386Z,101707.66
2023-05-05T13:07:12.597Z,101664.97
2023-05-05T13:09:42.052Z,101705.22
2023-05-05T13:12:14.031Z,101710.78
2023-05-05T13:14:41.581Z,101711.50
2023-05-05T13:17:11.844Z,101723.25
2023-05-05T13:19:42.614Z,101727.41
2023-05-05T13:22:13.115Z,101732.25
2023-05-05T13:24:50.977Z,101740.16
2023-05-05T13:27:19.935Z,101750.34
2023-05-05T13:29:46.790Z,101752.25
2023-05-05T13:32:15.936Z,101750.50
2023-05-05T13:34:44.418Z,101750.78
2023-05-05T13:37:11.070Z,101756.81
2023-05-05T13:39:40.210Z,101755.75
2023-05-05T13:42:09.020Z,101755.94
2023-05-05T13:44:35.758Z,101738.34
2023-05-05T13:47:04.937Z,101738.34
2023-05-05T13:49:31.522Z,101739.75
2023-05-05T13:52:00.263Z,101726.31
2023-05-05T13:54:30.038Z,101709.44
2023-05-05T13:56:57.921Z,101716.91
2023-05-05T13:59:25.798Z,101701.56
2023-05-05T14:01:52.492Z,101699.50
2023-05-05T14:04:19.175Z,101704.66
2023-05-05T14:06:45.899Z,101689.50
2023-05-05T14:09:13.764Z,101677.81
2023-05-05T14:11:41.338Z,101685.91
2023-05-05T14:14:08.267Z,101674.72
2023-05-05T14:16:37.268Z,101676.56
2023-05-05T14:19:04.060Z,101684.31
2023-05-05T14:21:35.847Z,101681.91
2023-05-05T14:24:02.478Z,101661.41
2023-05-05T14:26:29.300Z,101671.25
2023-05-05T14:28:56.237Z,101672.59
2023-05-05T14:31:23.193Z,101661.06
2023-05-05T14:33:49.916Z,101657.63
2023-05-05T14:36:16.559Z,101661.72
2023-05-05T14:38:45.700Z,101656.00
2023-05-05T14:41:13.301Z,101652.59
2023-05-05T14:43:40.761Z,101634.13
2023-05-05T14:46:07.660Z,101659.44
2023-05-05T14:48:34.718Z,101648.72
2023-05-05T14:51:02.456Z,101657.31
2023-05-05T14:53:29.079Z,101657.91
2023-05-05T14:55:56.634Z,101643.28
2023-05-05T14:58:24.809Z,101638.00
2023-05-05T15:00:53.025Z,101643.84
2023-05-05T15:03:19.700Z,101628.84
2023-05-05T15:05:46.495Z,101636.69
2023-05-05T15:08:14.596Z,101643.13
2023-05-05T15:10:43.868Z,101649.94
2023-05-05T15:13:13.140Z,101663.38
2023-05-05T15:15:39.958Z,101650.19
2023-05-05T15:18:07.067Z,101644.09
2023-05-05T15:20:33.967Z,101648.88
2023-05-05T15:23:01.518Z,101613.63
2023-05-05T15:25:30.402Z,101613.94
2023-05-05T15:28:00.955Z,101641.56
2023-05-05T15:30:29.956Z,101653.72
2023-05-05T15:32:58.810Z,101637.88
2023-05-05T15:35:25.688Z,101633.50
2023-05-05T15:37:54.504Z,101645.19
2023-05-05T15:40:25.945Z,101643.47
2023-05-05T15:42:52.686Z,101637.81
2023-05-05T15:45:19.876Z,101636.53
2023-05-05T15:47:46.815Z,101629.22
2023-05-05T15:50:14.404Z,101623.66
2023-05-05T15:52:41.756Z,101631.00
2023-05-05T15:55:09.421Z,101631.63
2023-05-05T15:57:36.419Z,101624.66
2023-05-05T16:00:03.343Z,101624.97
2023-05-05T16:02:30.159Z,101618.59
2023-05-05T16:04:56.979Z,101608.16
2023-05-05T16:07:23.547Z,101621.66
2023-05-05T16:09:50.172Z,101619.56
2023-05-05T16:12:16.762Z,101622.63
2023-05-05T16:14:43.717Z,101623.84
2023-05-05T16:17:13.354Z,101619.88
2023-05-05T16:19:39.940Z,101614.72
2023-05-05T16:22:09.286Z,101613.56
2023-05-05T16:24:35.933Z,101618.13
2023-05-05T16:27:04.778Z,101614.94
2023-05-05T16:29:31.895Z,101634.31
2023-05-05T16:32:00.994Z,101627.56
2023-05-05T16:34:27.922Z,101627.84
2023-05-05T16:36:57.006Z,101634.25
2023-05-05T16:39:23.565Z,101622.72
2023-05-05T16:41:50.260Z,101618.00
2023-05-05T16:44:16.843Z,101606.72
2023-05-05T16:46:43.616Z,101622.34
2023-05-05T16:49:10.201Z,101626.47
2023-05-05T16:51:36.782Z,101632.09
2023-05-05T16:54:05.804Z,101626.03
2023-05-05T16:56:32.522Z,101632.47
2023-05-05T16:58:59.100Z,101631.34
2023-05-05T17:01:25.784Z,101626.97
2023-05-05T17:03:52.581Z,101627.75
2023-05-05T17:06:19.393Z,101624.91
2023-05-05T17:08:48.710Z,101625.13
2023-05-05T17:11:15.580Z,101627.78
2023-05-05T17:13:42.222Z,101621.44
2023-05-05T17:16:08.913Z,101629.41
2023-05-05T17:18:35.539Z,101629.25
2023-05-05T17:21:03.905Z,101623.59
2023-05-05T17:23:33.044Z,101622.03
2023-05-05T17:25:59.697Z,101606.38
2023-05-05T17:28:26.508Z,101599.50
2023-05-05T17:30:53.369Z,101615.31
2023-05-05T17:33:22.430Z,101600.88
2023-05-05T17:35:49.090Z,101612.25
2023-05-05T17:38:18.495Z,101612.59
2023-05-05T17:40:48.148Z,101597.13
2023-05-05T17:43:16.821Z,101609.34
2023-05-05T17:45:46.826Z,101615.03
2023-05-05T17:48:13.404Z,101605.03
2023-05-05T17:50:42.657Z,101589.06
2023-05-05T17:53:10.727Z,101610.41
2023-05-05T17:55:39.489Z,101596.81
2023-05-05T17:58:06.117Z,101612.47
2023-05-05T18:00:35.814Z,101610.75
2023-05-05T18:03:02.490Z,101622.34
2023-05-05T18:05:30.849Z,101609.41
2023-05-05T18:07:57.557Z,101605.81
2023-05-05T18:10:26.749Z,101606.16
2023-05-05T18:12:53.494Z,101606.66
2023-05-05T18:15:20.388Z,101601.31
2023-05-05T18:17:47.582Z,101609.75
2023-05-05T18:20:14.188Z,101604.25
2023-05-05T18:22:40.910Z,101605.28
2023-05-05T18:25:08.728Z,101619.75
2023-05-05T18:27:40.174Z,101618.22
2023-05-05T18:30:09.410Z,101619.94
2023-05-05T18:32:40.882Z,101609.94
2023-05-05T18:35:10.533Z,101631.16
2023-05-05T18:37:37.343Z,101640.91
2023-05-05T18:40:04.462Z,101641.41
2023-05-05T18:42:31.193Z,101641.25
2023-05-05T18:44:57.912Z,101642.81
2023-05-05T18:47:24.546Z,101633.16
2023-05-05T18:49:51.553Z,101642.09
2023-05-05T18:52:18.418Z,101633.13
2023-05-05T18:54:47.532Z,101646.00
2023-05-05T18:57:14.152Z,101653.56
2023-05-05T18:59:40.854Z,101648.06
2023-05-05T19:02:07.960Z,101656.81
2023-05-05T19:04:37.473Z,101666.78
2023-05-05T19:07:05.097Z,101660.34
2023-05-05T19:09:31.764Z,101666.56
2023-05-05T19:11:58.371Z,101631.84
2023-05-05T19:14:25.616Z,101656.50
2023-05-05T19:16:52.625Z,101661.94
2023-05-05T19:19:19.403Z,101673.09
2023-05-05T19:21:45.992Z,101663.38
2023-05-05T19:24:12.702Z,101674.88
2023-05-05T19:26:39.773Z,101678.28
2023-05-05T19:29:06.570Z,101674.44
2023-05-05T19:31:33.249Z,101675.09
2023-05-05T19:34:04.810Z,101683.66
2023-05-05T19:36:32.476Z,101680.84
2023-05-05T19:39:06.066Z,101684.97
2023-05-05T19:41:35.286Z,101681.25
2023-05-05T19:44:02.152Z,101687.06
2023-05-05T19:46:29.233Z,101688.75
2023-05-05T19:48:56.047Z,101653.28
2023-05-05T19:51:22.948Z,101688.69
2023-05-05T19:53:51.827Z,101702.03
2023-05-05T19:56:18.470Z,101693.41
2023-05-05T19:59:02.387Z,101698.31
2023-05-05T20:01:29.517Z,101698.78
2023-05-05T20:03:57.012Z,101698.84
2023-05-05T20:06:27.147Z,101693.41
2023-05-05T20:08:56.166Z,101682.59
2023-05-05T20:11:23.030Z,101701.66
2023-05-05T20:13:50.302Z,101701.09
2023-05-05T20:16:17.026Z,101697.09
2023-05-05T20:18:46.533Z,101703.75
2023-05-05T20:21:13.729Z,101691.84
2023-05-05T20:23:40.551Z,101702.66
2023-05-05T20:26:07.744Z,101706.25
2023-05-05T20:28:39.704Z,101643.22
2023-05-05T20:31:07.122Z,101700.53
2023-05-05T20:33:34.236Z,101701.97
2023-05-05T20:36:01.161Z,101699.88
2023-05-05T20:38:27.795Z,101699.28
2023-05-05T20:40:54.423Z,101703.38
2023-05-05T20:43:21.191Z,101698.19
2023-05-05T20:45:50.108Z,101700.22
2023-05-05T20:48:16.852Z,101687.41
2023-05-05T20:50:43.731Z,101697.06
2023-05-05T20:53:12.018Z,101694.66
2023-05-05T20:55:38.613Z,101698.53
2023-05-05T20:58:07.434Z,101692.34
2023-05-05T21:00:39.073Z,101686.47
2023-05-05T21:03:08.161Z,101689.34
2023-05-05T21:05:36.007Z,101674.66
2023-05-05T21:08:02.753Z,101671.66
2023-05-05T21:10:29.527Z,101664.00
2023-05-05T21:12:56.306Z,101683.75
2023-05-05T21:15:25.342Z,101684.94
2023-05-05T21:17:51.980Z,101685.25
2023-05-05T21:20:21.160Z,101686.97
2023-05-05T21:22:47.888Z,101689.72
2023-05-05T21:25:17.380Z,101682.78
2023-05-05T21:27:49.235Z,101677.03
2023-05-05T21:30:16.800Z,101681.66
2023-05-05T21:32:44.112Z,101692.47
2023-05-05T21:35:10.860Z,101678.75
2023-05-05T21:37:39.122Z,101679.31
2023-05-05T21:40:13.450Z,101676.44
2023-05-05T21:42:43.559Z,101673.53
2023-05-05T21:45:11.456Z,101665.91
2023-05-05T21:47:40.378Z,101672.50
2023-05-05T21:50:08.019Z,101682.31
2023-05-05T21:52:37.464Z,101677.38
2023-05-05T21:55:06.787Z,101684.31
2023-05-05T21:57:33.586Z,101675.19
2023-05-05T22:00:00.264Z,101675.19
2023-05-05T22:02:26.893Z,101679.84
2023-05-05T22:04:56.041Z,101666.97
2023-05-05T22:07:22.686Z,101680.97
2023-05-05T22:09:49.231Z,101679.63
2023-05-05T22:12:16.392Z,101681.38
2023-05-05T22:14:43.265Z,101671.41
2023-05-05T22:17:09.925Z,101690.16
2023-05-05T22:19:36.499Z,101675.59
2023-05-05T22:22:03.341Z,101681.63
2023-05-05T22:24:30.053Z,101657.16
2023-05-05T22:26:57.420Z,101672.06
2023-05-05T22:29:25.179Z,101668.16
2023-05-05T22:31:54.183Z,101646.44
2023-05-05T22:34:23.932Z,101668.88
2023-05-05T22:36:50.518Z,101665.28
2023-05-05T22:39:18.540Z,101663.53
2023-05-05T22:41:45.173Z,101664.72
2023-05-05T22:44:11.798Z,101660.00
2023-05-05T22:46:38.513Z,101658.97
2023-05-05T22:49:06.516Z,101652.38
2023-05-05T22:51:33.342Z,101632.72
2023-05-05T22:54:02.450Z,101636.25
2023-05-05T22:56:29.158Z,101664.66
2023-05-05T22:58:56.088Z,101655.00
2023-05-05T23:01:23.047Z,101657.03
2023-05-05T23:03:49.747Z,101645.09
2023-05-05T23:06:16.495Z,101656.50
2023-05-05T23:08:45.616Z,101659.38
2023-05-05T23:11:14.303Z,101660.69
2023-05-05T23:13:41.114Z,101624.56
2023-05-05T23:16:07.876Z,101650.75
2023-05-05T23:18:36.337Z,101663.16
2023-05-05T23:21:02.935Z,101661.56
2023-05-05T23:23:30.037Z,101661.00
2023-05-05T23:25:58.839Z,101662.34
2023-05-05T23:28:25.456Z,101636.13
2023-05-05T23:30:52.053Z,101647.38
2023-05-05T23:33:21.013Z,101664.38
2023-05-05T23:35:47.941Z,101659.34
2023-05-05T23:38:14.671Z,101658.03
2023-05-05T23:40:41.372Z,101673.34
2023-05-05T23:43:11.984Z,101663.81
2023-05-05T23:45:38.696Z,101662.38
2023-05-05T23:48:05.917Z,101666.44
2023-05-05T23:50:32.583Z,101659.34
2023-05-05T23:53:01.775Z,101645.69
2023-05-05T23:55:28.531Z,101650.31
2023-05-05T23:57:57.529Z,101648.69
